Time;durP1;ratioP1;P1;durP2;ratioP2;P2;SDS_P1;SDS_P2;PMS_P1;PMS_P2;Temp;Humidity;BMP_temperature;BMP_pressure;BME280_temperature;BME280_humidity;BME280_pressure;Samples;Min_cycle;Max_cycle;Signal;HPM_P1;HPM_P2
2023/06/09 00:01:38;;;;;;;1.83;1.35;;;23.90;48.50;;;;;;5077622;28;20393;-76
2023/06/09 00:04:06;;;;;;;3.50;2.10;;;23.80;48.50;;;;;;5094246;28;20020;-76
2023/06/09 00:06:33;;;;;;;3.75;2.03;;;23.80;48.60;;;;;;5095476;28;20453;-76
2023/06/09 00:08:58;;;;;;;3.42;2.22;;;23.80;48.60;;;;;;5078151;28;20036;-75
2023/06/09 00:11:26;;;;;;;3.10;1.80;;;23.70;48.60;;;;;;5077518;28;20024;-76
2023/06/09 00:13:53;;;;;;;3.50;1.90;;;23.70;48.70;;;;;;5094547;28;20100;-76
2023/06/09 00:16:23;;;;;;;3.47;1.98;;;23.70;48.70;;;;;;5095815;28;20063;-76
2023/06/09 00:18:51;;;;;;;2.78;1.67;;;23.60;48.70;;;;;;5095485;28;20028;-76
2023/06/09 00:21:18;;;;;;;3.65;2.10;;;23.60;48.80;;;;;;5095763;28;20345;-76
2023/06/09 00:23:45;;;;;;;3.10;1.63;;;23.60;48.80;;;;;;5093951;28;20082;-76
2023/06/09 00:26:11;;;;;;;2.90;1.75;;;23.60;48.80;;;;;;5094011;28;20460;-76
2023/06/09 00:28:37;;;;;;;2.45;1.77;;;23.50;48.90;;;;;;5094052;28;20039;-76
2023/06/09 00:31:03;;;;;;;2.40;1.67;;;23.50;48.90;;;;;;5078000;28;20028;-76
2023/06/09 00:33:29;;;;;;;3.65;2.22;;;23.40;48.90;;;;;;5094200;28;20460;-76
2023/06/09 00:35:55;;;;;;;2.65;1.80;;;23.40;48.90;;;;;;5077162;28;20457;-76
2023/06/09 00:38:20;;;;;;;3.40;2.05;;;23.30;48.80;;;;;;5060535;28;20103;-76
2023/06/09 00:40:50;;;;;;;2.33;1.70;;;23.30;48.90;;;;;;5076962;28;20079;-76
2023/06/09 00:43:16;;;;;;;3.38;1.88;;;23.30;48.90;;;;;;5093666;28;20486;-76
2023/06/09 00:45:42;;;;;;;3.15;2.00;;;23.20;48.90;;;;;;5094664;28;20036;-75
2023/06/09 00:48:08;;;;;;;2.83;1.90;;;23.20;48.90;;;;;;5093609;28;20035;-75
2023/06/09 00:50:34;;;;;;;2.67;1.63;;;23.20;49.00;;;;;;5093600;28;20060;-76
2023/06/09 00:53:01;;;;;;;3.67;2.17;;;23.10;48.90;;;;;;5093806;28;20035;-76
2023/06/09 00:55:28;;;;;;;2.35;1.83;;;23.10;49.00;;;;;;5093739;28;20029;-76
2023/06/09 00:57:58;;;;;;;4.15;2.15;;;23.10;49.00;;;;;;5060147;28;20034;-76
2023/06/09 01:00:28;;;;;;;2.92;1.88;;;23.00;49.00;;;;;;5077579;28;20036;-76
2023/06/09 01:03:00;;;;;;;3.63;2.08;;;23.00;49.10;;;;;;5093483;28;20036;-76
2023/06/09 01:05:36;;;;;;;3.85;2.00;;;23.00;49.10;;;;;;5095094;28;20032;-76
2023/06/09 01:08:15;;;;;;;3.10;1.80;;;23.00;49.10;;;;;;5094703;28;20032;-76
2023/06/09 01:10:52;;;;;;;2.88;1.85;;;23.00;49.20;;;;;;5093298;28;20032;-76
2023/06/09 01:14:00;;;;;;;3.65;2.15;;;22.90;49.20;;;;;;5093339;28;20067;-76
2023/06/09 01:16:44;;;;;;;2.33;1.55;;;22.90;49.30;;;;;;5065977;28;20036;-75
2023/06/09 01:19:31;;;;;;;2.53;1.63;;;22.90;49.30;;;;;;5093759;28;20032;-76
2023/06/09 01:22:01;;;;;;;3.10;1.80;;;22.80;49.30;;;;;;5093282;28;20028;-76
2023/06/09 01:25:17;;;;;;;3.92;1.90;;;22.70;49.30;;;;;;5093124;28;20024;-75
2023/06/09 01:27:44;;;;;;;2.60;1.90;;;22.70;49.40;;;;;;5075623;28;20535;-76
2023/06/09 01:30:13;;;;;;;3.78;2.08;;;22.70;49.40;;;;;;5076078;28;20119;-76
2023/06/09 01:32:41;;;;;;;3.13;1.80;;;22.60;49.40;;;;;;5076778;28;20460;-76
2023/06/09 01:35:08;;;;;;;2.72;1.85;;;22.60;49.50;;;;;;5075926;28;20036;-76
2023/06/09 01:37:34;;;;;;;2.92;1.85;;;22.60;49.50;;;;;;5093325;28;20341;-76
2023/06/09 01:40:00;;;;;;;2.40;1.63;;;22.60;49.50;;;;;;5059022;28;20060;-76
2023/06/09 01:42:26;;;;;;;3.60;1.60;;;22.50;49.50;;;;;;5076189;28;20039;-76
2023/06/09 01:44:51;;;;;;;2.83;1.52;;;22.50;49.50;;;;;;5092606;28;20422;-76
2023/06/09 01:47:21;;;;;;;3.10;1.75;;;22.50;49.60;;;;;;5092957;28;20127;-76
2023/06/09 01:50:01;;;;;;;2.53;1.60;;;22.40;49.60;;;;;;5060409;28;20028;-76
2023/06/09 01:52:40;;;;;;;3.65;2.00;;;22.40;49.60;;;;;;5092793;28;20058;-75
2023/06/09 01:55:12;;;;;;;4.43;2.20;;;22.40;49.60;;;;;;5094248;28;20048;-76
2023/06/09 01:57:50;;;;;;;3.10;1.67;;;22.40;49.70;;;;;;5093268;28;20421;-76
2023/06/09 02:00:16;;;;;;;2.65;1.67;;;22.30;49.70;;;;;;5092198;28;20032;-75
2023/06/09 02:02:46;;;;;;;3.30;2.22;;;22.30;49.70;;;;;;5092897;28;20074;-76
2023/06/09 02:05:15;;;;;;;3.15;1.65;;;22.30;49.80;;;;;;5092504;28;20020;-76
2023/06/09 02:07:44;;;;;;;2.85;1.70;;;22.20;49.80;;;;;;5093406;28;20020;-76
2023/06/09 02:10:11;;;;;;;3.08;1.88;;;22.20;49.80;;;;;;5076471;28;20070;-76
2023/06/09 02:12:37;;;;;;;3.45;1.90;;;22.20;49.80;;;;;;5076159;28;20076;-76
2023/06/09 02:15:05;;;;;;;3.05;2.00;;;22.20;49.90;;;;;;5093900;28;20032;-76
2023/06/09 02:17:33;;;;;;;3.42;1.90;;;22.10;49.80;;;;;;5092111;28;20039;-76
2023/06/09 02:19:59;;;;;;;3.22;1.83;;;22.10;49.90;;;;;;5058867;28;20047;-76
2023/06/09 02:22:26;;;;;;;2.92;1.80;;;22.10;49.90;;;;;;5092452;28;20119;-77
2023/06/09 02:24:52;;;;;;;4.13;2.30;;;22.00;49.90;;;;;;5075649;28;20197;-76
2023/06/09 02:27:18;;;;;;;3.85;2.10;;;22.00;49.90;;;;;;5092163;28;20035;-76
2023/06/09 02:29:44;;;;;;;3.65;1.75;;;22.00;50.00;;;;;;5075327;28;20028;-77
2023/06/09 02:32:10;;;;;;;3.35;2.00;;;22.00;50.00;;;;;;5058858;28;20081;-78
2023/06/09 02:34:37;;;;;;;3.33;2.08;;;21.90;50.60;;;;;;5091823;28;20028;-80
2023/06/09 02:37:07;;;;;;;3.13;1.90;;;21.90;50.00;;;;;;5075067;28;20074;-78
2023/06/09 02:39:34;;;;;;;3.47;1.85;;;21.90;50.10;;;;;;5074861;28;20048;-78
2023/06/09 02:42:00;;;;;;;3.33;1.83;;;21.80;50.00;;;;;;5075548;28;20036;-78
2023/06/09 02:44:28;;;;;;;3.20;1.63;;;21.80;50.10;;;;;;5075779;28;20058;-78
2023/06/09 02:46:54;;;;;;;2.88;1.80;;;21.80;50.20;;;;;;5093927;28;20070;-78
2023/06/09 02:49:21;;;;;;;5.55;2.08;;;21.70;50.20;;;;;;5096146;28;20040;-77
2023/06/09 02:51:47;;;;;;;3.33;2.00;;;21.70;50.20;;;;;;5096485;28;20103;-76
2023/06/09 02:54:14;;;;;;;3.45;2.08;;;21.70;50.20;;;;;;5096137;28;20036;-78
2023/06/09 02:56:39;;;;;;;3.05;1.80;;;21.70;50.30;;;;;;5096054;28;20027;-78
2023/06/09 02:59:07;;;;;;;2.75;1.92;;;21.70;50.30;;;;;;5079012;28;20032;-77
2023/06/09 03:01:36;;;;;;;3.72;2.28;;;21.60;50.30;;;;;;5046949;28;20036;-78
2023/06/09 03:04:07;;;;;;;3.05;1.75;;;21.60;50.30;;;;;;5079672;28;20039;-78
2023/06/09 03:06:36;;;;;;;3.83;2.17;;;21.50;50.30;;;;;;5098446;28;20020;-78
2023/06/09 03:09:04;;;;;;;3.45;1.95;;;21.50;50.40;;;;;;5090388;28;20032;-79
2023/06/09 03:11:31;;;;;;;3.67;1.92;;;21.50;50.40;;;;;;5090030;28;20019;-80
2023/06/09 03:13:57;;;;;;;3.95;2.33;;;21.50;50.50;;;;;;5088516;28;20036;-77
2023/06/09 03:16:23;;;;;;;3.22;1.98;;;21.40;50.50;;;;;;5097023;28;20107;-78
2023/06/09 03:18:49;;;;;;;3.17;1.73;;;21.40;50.50;;;;;;5095581;28;20020;-77
2023/06/09 03:21:15;;;;;;;3.83;2.05;;;21.40;50.60;;;;;;5096169;28;20043;-77
2023/06/09 03:23:41;;;;;;;3.20;1.95;;;21.40;50.60;;;;;;5095631;28;20032;-76
2023/06/09 03:26:08;;;;;;;3.45;1.98;;;21.30;50.60;;;;;;5095682;28;20028;-77
2023/06/09 03:28:33;;;;;;;4.97;1.95;;;21.30;50.60;;;;;;5078936;28;20130;-78
2023/06/09 03:30:59;;;;;;;3.15;2.03;;;21.30;50.70;;;;;;5095262;28;20028;-78
2023/06/09 03:33:27;;;;;;;2.50;1.67;;;21.20;50.70;;;;;;5062241;28;20028;-77
2023/06/09 03:35:54;;;;;;;4.75;2.08;;;21.20;50.70;;;;;;5062351;28;20486;-77
2023/06/09 03:38:22;;;;;;;4.53;2.30;;;21.20;50.80;;;;;;5062125;28;20036;-77
2023/06/09 03:40:48;;;;;;;3.67;2.10;;;21.10;50.80;;;;;;5078256;28;20408;-77
2023/06/09 03:43:14;;;;;;;3.20;1.83;;;21.10;50.80;;;;;;5061815;28;20032;-77
2023/06/09 03:45:40;;;;;;;3.95;2.17;;;21.10;50.80;;;;;;5061427;28;20028;-76
2023/06/09 03:48:08;;;;;;;4.15;2.00;;;21.10;50.90;;;;;;5095085;28;20477;-76
2023/06/09 03:50:34;;;;;;;4.47;2.40;;;21.10;50.90;;;;;;5078148;28;20028;-80
2023/06/09 03:53:00;;;;;;;2.75;1.63;;;21.00;50.90;;;;;;5094834;28;20082;-77
2023/06/09 03:55:29;;;;;;;3.15;2.17;;;21.00;51.00;;;;;;5078417;28;20388;-77
2023/06/09 03:57:56;;;;;;;3.58;1.90;;;20.90;51.60;;;;;;5077779;28;20028;-78
2023/06/09 04:00:22;;;;;;;4.10;2.10;;;21.00;51.00;;;;;;5077935;28;20536;-77
2023/06/09 04:02:50;;;;;;;3.55;2.00;;;20.90;51.00;;;;;;5078521;28;20036;-77
2023/06/09 04:05:17;;;;;;;4.35;1.92;;;20.90;51.00;;;;;;5061244;28;20442;-78
2023/06/09 04:07:45;;;;;;;3.72;1.92;;;20.90;51.10;;;;;;5045475;28;20020;-77
2023/06/09 04:10:11;;;;;;;2.97;1.73;;;20.80;51.10;;;;;;5060824;28;20067;-78
2023/06/09 04:12:38;;;;;;;3.53;2.05;;;20.80;51.10;;;;;;5077736;28;20063;-79
2023/06/09 04:15:06;;;;;;;2.63;1.60;;;20.80;51.20;;;;;;5077799;28;20085;-77
2023/06/09 04:17:34;;;;;;;3.20;1.95;;;20.80;51.20;;;;;;5078679;28;20630;-77
2023/06/09 04:20:01;;;;;;;4.47;1.98;;;20.80;51.30;;;;;;5094386;28;20438;-78
2023/06/09 04:22:27;;;;;;;3.20;1.77;;;20.70;51.30;;;;;;5094995;28;20028;-77
2023/06/09 04:24:53;;;;;;;3.42;1.80;;;20.70;51.30;;;;;;5077581;28;20080;-77
2023/06/09 04:27:19;;;;;;;3.65;2.00;;;20.70;51.30;;;;;;5077584;28;20031;-77
2023/06/09 04:29:46;;;;;;;4.20;2.20;;;20.70;51.30;;;;;;5078090;28;20370;-76
2023/06/09 04:32:13;;;;;;;3.95;2.20;;;20.60;51.30;;;;;;5060752;28;20476;-78
2023/06/09 04:34:39;;;;;;;3.72;1.95;;;20.60;51.40;;;;;;5061100;28;20024;-78
2023/06/09 04:37:08;;;;;;;4.03;2.00;;;20.60;51.40;;;;;;5094648;28;20036;-77
2023/06/09 04:39:35;;;;;;;2.85;1.85;;;20.60;52.10;;;;;;5093519;28;20130;-82
2023/06/09 04:42:04;;;;;;;3.30;1.83;;;20.50;51.40;;;;;;5077368;28;20032;-80
2023/06/09 04:44:32;;;;;;;4.55;2.50;;;20.50;51.50;;;;;;5077397;28;20101;-80
2023/06/09 04:47:02;;;;;;;4.15;2.17;;;20.50;51.60;;;;;;5060725;28;20417;-77
2023/06/09 04:49:30;;;;;;;2.92;2.10;;;20.50;51.60;;;;;;5093908;28;20036;-79
2023/06/09 04:51:58;;;;;;;4.38;2.25;;;20.50;51.60;;;;;;5093955;28;20028;-79
2023/06/09 04:54:29;;;;;;;3.78;2.30;;;20.50;51.70;;;;;;5062521;28;20024;-77
2023/06/09 04:56:57;;;;;;;4.32;2.00;;;20.50;51.80;;;;;;5093945;28;20380;-78
2023/06/09 04:59:24;;;;;;;3.80;2.08;;;20.40;51.70;;;;;;5060199;28;20044;-78
2023/06/09 05:01:52;;;;;;;5.75;2.47;;;20.40;52.40;;;;;;5076391;28;20040;-78
2023/06/09 05:04:19;;;;;;;3.40;1.95;;;20.40;51.80;;;;;;5077196;28;20043;-78
2023/06/09 05:06:45;;;;;;;4.03;2.28;;;20.40;51.90;;;;;;5059971;28;20119;-79
2023/06/09 05:09:12;;;;;;;3.25;2.03;;;20.40;51.90;;;;;;5075787;28;20043;-80
2023/06/09 05:11:37;;;;;;;3.63;2.22;;;20.30;51.90;;;;;;5094175;28;20032;-77
2023/06/09 05:14:07;;;;;;;2.95;1.85;;;20.30;51.90;;;;;;5043372;28;20035;-78
2023/06/09 05:16:34;;;;;;;3.78;2.30;;;20.30;52.00;;;;;;5093038;28;20035;-79
2023/06/09 05:19:02;;;;;;;5.93;2.30;;;20.30;52.00;;;;;;5092997;28;20036;-77
2023/06/09 05:21:29;;;;;;;2.85;2.00;;;20.20;52.00;;;;;;5076468;28;20528;-77
2023/06/09 05:23:55;;;;;;;4.78;2.25;;;20.30;52.10;;;;;;5075993;28;20044;-78
2023/06/09 05:26:21;;;;;;;3.53;2.10;;;20.30;52.80;;;;;;5042979;28;20096;-75
2023/06/09 05:28:48;;;;;;;4.13;2.53;;;20.20;52.10;;;;;;5076909;28;20431;-73
2023/06/09 05:31:16;;;;;;;4.15;2.17;;;20.20;52.10;;;;;;5093051;28;20039;-74
2023/06/09 05:33:43;;;;;;;2.50;1.95;;;20.20;52.20;;;;;;5076032;28;20024;-75
2023/06/09 05:36:10;;;;;;;4.60;2.38;;;20.20;52.20;;;;;;5092992;28;20457;-76
2023/06/09 05:38:41;;;;;;;3.78;2.13;;;20.20;52.20;;;;;;5092874;28;20481;-75
2023/06/09 05:41:07;;;;;;;4.15;2.10;;;20.20;52.20;;;;;;5079583;28;20477;-76
2023/06/09 05:43:33;;;;;;;3.92;2.30;;;20.20;52.30;;;;;;5075930;28;20028;-77
2023/06/09 05:45:59;;;;;;;3.67;2.22;;;20.20;52.30;;;;;;5075842;28;20115;-74
2023/06/09 05:48:25;;;;;;;3.83;2.20;;;20.20;52.30;;;;;;5092982;28;20043;-75
2023/06/09 05:50:51;;;;;;;3.90;2.45;;;20.20;52.40;;;;;;5076100;28;20032;-75
2023/06/09 05:53:17;;;;;;;3.85;2.13;;;20.20;52.40;;;;;;5059099;28;20028;-75
2023/06/09 05:55:47;;;;;;;4.82;2.65;;;20.20;52.50;;;;;;5075754;28;20028;-75
2023/06/09 05:58:14;;;;;;;3.53;2.10;;;20.20;52.50;;;;;;5093807;28;20032;-75
2023/06/09 06:00:40;;;;;;;3.53;2.10;;;20.20;53.10;;;;;;5076313;28;20137;-76
2023/06/09 06:03:08;;;;;;;3.38;2.10;;;20.20;52.50;;;;;;5093138;28;20359;-77
2023/06/09 06:05:34;;;;;;;4.80;2.38;;;20.20;52.50;;;;;;5075566;28;20077;-75
2023/06/09 06:08:00;;;;;;;4.47;2.50;;;20.20;52.50;;;;;;5092478;28;20436;-75
2023/06/09 06:10:26;;;;;;;4.28;2.30;;;20.20;52.60;;;;;;5092424;28;20043;-75
2023/06/09 06:12:53;;;;;;;4.35;2.45;;;20.20;52.70;;;;;;5075570;28;20471;-74
2023/06/09 06:15:18;;;;;;;3.78;2.30;;;20.20;52.80;;;;;;5075453;28;20476;-74
2023/06/09 06:17:44;;;;;;;4.07;2.63;;;20.20;52.80;;;;;;5092297;28;20109;-75
2023/06/09 06:20:12;;;;;;;4.95;2.88;;;20.20;52.80;;;;;;5091811;28;20067;-74
2023/06/09 06:22:39;;;;;;;3.95;2.53;;;20.20;52.80;;;;;;5093440;28;20465;-77
2023/06/09 06:25:05;;;;;;;3.72;2.50;;;20.20;52.90;;;;;;5075416;28;20043;-76
2023/06/09 06:27:31;;;;;;;5.05;2.40;;;20.20;52.90;;;;;;5092069;28;20040;-76
2023/06/09 06:29:56;;;;;;;3.65;2.60;;;20.20;52.90;;;;;;5093460;28;20031;-75
2023/06/09 06:32:22;;;;;;;4.57;2.72;;;20.20;53.00;;;;;;5075157;28;20040;-75
2023/06/09 06:34:48;;;;;;;4.30;2.58;;;20.20;53.00;;;;;;5058246;28;20036;-76
2023/06/09 06:37:14;;;;;;;6.53;2.80;;;20.20;53.00;;;;;;5075283;28;20032;-77
2023/06/09 06:39:40;;;;;;;4.28;2.70;;;20.20;53.00;;;;;;5074704;28;20051;-75
2023/06/09 06:42:06;;;;;;;5.07;2.90;;;20.30;53.20;;;;;;5092532;28;20526;-77
2023/06/09 06:44:45;;;;;;;4.93;2.85;;;20.20;53.20;;;;;;5093394;28;20078;-77
2023/06/09 06:47:11;;;;;;;4.97;3.00;;;20.20;53.20;;;;;;5093312;28;20028;-78
2023/06/09 06:49:37;;;;;;;4.90;3.03;;;20.20;53.20;;;;;;5091858;28;20047;-77
2023/06/09 06:52:03;;;;;;;5.32;2.70;;;20.30;53.30;;;;;;5075646;28;20028;-77
2023/06/09 06:54:29;;;;;;;4.88;2.70;;;20.30;53.30;;;;;;5093255;28;20032;-77
2023/06/09 06:56:54;;;;;;;5.07;2.67;;;20.30;53.30;;;;;;5075051;28;20126;-77
2023/06/09 06:59:20;;;;;;;5.03;2.63;;;20.30;53.40;;;;;;5075283;28;20043;-77
2023/06/09 07:01:46;;;;;;;4.72;2.75;;;20.30;53.40;;;;;;5091890;28;20032;-77
2023/06/09 07:04:12;;;;;;;4.45;2.53;;;20.30;53.40;;;;;;5092062;28;20024;-77
2023/06/09 07:06:38;;;;;;;4.35;2.78;;;20.30;53.40;;;;;;5092071;28;20039;-78
2023/06/09 07:09:04;;;;;;;4.53;2.80;;;20.30;53.50;;;;;;5074858;28;20063;-76
2023/06/09 07:11:32;;;;;;;4.70;2.67;;;20.40;53.60;;;;;;5074829;28;20063;-77
2023/06/09 07:13:58;;;;;;;5.63;2.67;;;20.40;53.60;;;;;;5091502;28;20032;-76
2023/06/09 07:16:24;;;;;;;4.65;2.67;;;20.40;53.60;;;;;;5058181;28;20024;-77
2023/06/09 07:18:50;;;;;;;3.70;2.53;;;20.40;53.60;;;;;;5074839;28;20059;-77
2023/06/09 07:21:16;;;;;;;4.30;2.63;;;20.40;53.60;;;;;;5075593;28;20060;-76
2023/06/09 07:23:41;;;;;;;3.65;2.58;;;20.40;53.50;;;;;;5091336;28;20523;-77
2023/06/09 07:26:07;;;;;;;4.68;2.58;;;20.50;53.60;;;;;;5092198;28;20377;-78
2023/06/09 07:28:33;;;;;;;4.18;2.63;;;20.50;53.60;;;;;;5091556;28;20393;-78
2023/06/09 07:30:59;;;;;;;5.45;2.95;;;20.50;53.60;;;;;;5091443;28;20028;-78
2023/06/09 07:33:24;;;;;;;6.35;3.25;;;20.60;53.60;;;;;;5077159;28;20127;-76
2023/06/09 07:35:52;;;;;;;4.18;2.90;;;20.60;53.50;;;;;;5095373;28;20035;-77
2023/06/09 07:38:20;;;;;;;5.30;3.30;;;20.70;53.50;;;;;;5095719;28;20102;-76
2023/06/09 07:40:46;;;;;;;4.53;2.85;;;20.70;53.40;;;;;;5094874;28;20056;-76
2023/06/09 07:43:12;;;;;;;4.05;2.67;;;20.70;53.40;;;;;;5095209;28;20158;-75
2023/06/09 07:45:38;;;;;;;5.30;2.70;;;20.80;53.40;;;;;;5094732;28;20036;-74
2023/06/09 07:48:04;;;;;;;5.22;3.22;;;20.90;53.40;;;;;;5095985;28;20036;-74
2023/06/09 07:50:29;;;;;;;4.15;2.90;;;20.90;53.30;;;;;;5061529;28;20035;-73
2023/06/09 07:52:55;;;;;;;5.43;2.92;;;21.00;53.30;;;;;;5077844;28;20504;-74
2023/06/09 07:55:21;;;;;;;5.35;2.75;;;21.00;53.20;;;;;;5095800;28;20028;-78
2023/06/09 07:57:47;;;;;;;4.05;2.60;;;21.10;53.20;;;;;;5094775;28;20032;-77
2023/06/09 08:00:13;;;;;;;4.85;2.95;;;21.20;53.20;;;;;;5096041;28;20105;-76
2023/06/09 08:02:42;;;;;;;4.45;3.03;;;21.20;53.80;;;;;;5096238;28;20062;-77
2023/06/09 08:05:09;;;;;;;5.53;2.92;;;21.30;53.10;;;;;;5079005;28;20024;-77
2023/06/09 08:07:35;;;;;;;4.55;2.60;;;21.40;53.00;;;;;;5095560;28;20499;-77
2023/06/09 08:10:01;;;;;;;4.63;2.92;;;21.40;52.90;;;;;;5096642;28;20039;-78
2023/06/09 08:12:27;;;;;;;4.55;2.60;;;21.50;52.90;;;;;;5065602;28;20028;-76
2023/06/09 08:14:53;;;;;;;5.47;3.22;;;21.60;52.90;;;;;;5045205;28;20387;-77
2023/06/09 08:17:19;;;;;;;6.70;3.33;;;21.60;52.80;;;;;;5078184;28;20028;-77
2023/06/09 08:19:44;;;;;;;4.75;3.13;;;21.70;52.80;;;;;;5094527;28;20028;-77
2023/06/09 08:22:11;;;;;;;3.92;2.75;;;21.80;52.70;;;;;;5077946;28;20467;-76
2023/06/09 08:24:37;;;;;;;4.80;2.97;;;21.90;52.70;;;;;;5077774;28;20071;-79
2023/06/09 08:27:03;;;;;;;5.15;3.17;;;22.00;52.70;;;;;;5094458;28;20093;-77
2023/06/09 08:29:28;;;;;;;5.32;3.35;;;22.10;52.60;;;;;;5077445;28;20120;-77
2023/06/09 08:31:54;;;;;;;4.18;2.67;;;22.10;52.50;;;;;;5061041;28;20030;-76
2023/06/09 08:34:20;;;;;;;3.53;2.65;;;22.20;52.50;;;;;;5095507;28;20028;-77
2023/06/09 08:36:46;;;;;;;5.05;3.08;;;22.30;52.50;;;;;;5094490;28;20032;-75
2023/06/09 08:39:12;;;;;;;4.05;2.88;;;22.40;52.50;;;;;;5093764;28;20078;-79
2023/06/09 08:41:39;;;;;;;4.18;2.85;;;22.50;52.50;;;;;;5077066;28;20040;-77
2023/06/09 08:44:05;;;;;;;4.28;3.00;;;22.50;52.50;;;;;;5095515;28;20031;-77
2023/06/09 08:46:37;;;;;;;4.38;3.13;;;22.60;52.40;;;;;;5095059;28;20036;-78
2023/06/09 08:49:03;;;;;;;4.43;2.80;;;22.70;52.40;;;;;;5077659;28;20395;-77
2023/06/09 08:51:29;;;;;;;5.05;3.10;;;22.80;53.00;;;;;;5093981;28;20119;-82
2023/06/09 08:53:56;;;;;;;5.15;3.13;;;22.90;52.50;;;;;;5094003;28;20119;-78
2023/06/09 08:56:22;;;;;;;4.53;3.03;;;23.00;52.50;;;;;;5076937;28;20415;-78
2023/06/09 08:58:52;;;;;;;4.43;3.00;;;23.00;52.50;;;;;;5095631;28;20032;-78
2023/06/09 09:01:18;;;;;;;4.88;3.00;;;23.10;52.50;;;;;;5093507;28;20036;-76
2023/06/09 09:03:47;;;;;;;4.07;2.88;;;23.30;52.50;;;;;;5093344;28;20032;-76
2023/06/09 09:06:14;;;;;;;4.13;2.83;;;23.40;52.70;;;;;;5093281;28;20507;-78
2023/06/09 09:08:40;;;;;;;3.78;2.80;;;23.40;52.70;;;;;;5093653;28;20043;-78
2023/06/09 09:11:06;;;;;;;4.60;3.03;;;23.50;52.80;;;;;;5094662;28;20457;-78
2023/06/09 09:13:32;;;;;;;4.22;2.45;;;23.60;52.80;;;;;;5094294;28;20027;-76
2023/06/09 09:16:02;;;;;;;4.25;2.67;;;23.70;52.70;;;;;;5094045;28;20020;-80
2023/06/09 09:18:34;;;;;;;5.20;3.10;;;23.80;52.60;;;;;;5060565;28;20036;-77
2023/06/09 09:21:02;;;;;;;4.55;2.75;;;23.90;52.70;;;;;;5077134;28;20048;-78
2023/06/09 09:23:32;;;;;;;4.10;2.72;;;24.00;52.70;;;;;;5059888;28;20122;-78
2023/06/09 09:26:00;;;;;;;4.43;3.22;;;24.10;52.80;;;;;;5095210;28;20040;-79
2023/06/09 09:28:41;;;;;;;5.13;2.85;;;24.20;52.80;;;;;;5093424;28;20055;-79
2023/06/09 09:31:08;;;;;;;4.75;3.00;;;24.30;53.00;;;;;;5093311;28;20040;-81
2023/06/09 09:33:38;;;;;;;4.43;3.00;;;24.40;53.00;;;;;;5076444;28;20082;-80
2023/06/09 09:36:09;;;;;;;4.85;2.85;;;24.50;53.00;;;;;;5076936;28;20064;-80
2023/06/09 09:38:35;;;;;;;4.40;2.60;;;24.60;53.10;;;;;;5076434;28;20080;-78
2023/06/09 09:41:00;;;;;;;5.72;3.25;;;24.70;53.10;;;;;;5076183;28;20055;-79
2023/06/09 09:43:28;;;;;;;5.07;3.28;;;24.80;53.20;;;;;;5093238;28;20028;-78
2023/06/09 09:45:57;;;;;;;4.20;2.97;;;24.90;53.90;;;;;;5076441;28;20051;-78
2023/06/09 09:48:24;;;;;;;6.18;3.17;;;25.00;53.10;;;;;;5076111;28;20028;-77
2023/06/09 09:50:55;;;;;;;4.32;3.05;;;25.10;53.10;;;;;;5092751;28;20035;-78
2023/06/09 09:53:22;;;;;;;4.47;2.97;;;25.20;53.20;;;;;;5092434;28;20085;-78
2023/06/09 09:55:51;;;;;;;3.90;2.80;;;25.40;53.30;;;;;;5092066;28;20024;-77
2023/06/09 09:58:18;;;;;;;3.88;2.65;;;25.40;53.30;;;;;;5093594;28;20148;-76
2023/06/09 10:00:46;;;;;;;3.88;2.90;;;25.50;53.20;;;;;;5092253;28;20085;-76
2023/06/09 10:03:15;;;;;;;4.50;2.78;;;25.60;53.20;;;;;;5075270;28;20032;-74
2023/06/09 10:05:47;;;;;;;3.95;2.90;;;25.70;53.10;;;;;;5092685;28;20063;-75
2023/06/09 10:08:23;;;;;;;4.30;2.92;;;25.80;53.00;;;;;;5092344;28;20502;-77
2023/06/09 10:10:51;;;;;;;3.72;2.97;;;25.90;53.10;;;;;;5092739;28;20465;-76
2023/06/09 10:13:18;;;;;;;4.25;2.78;;;26.10;53.10;;;;;;5075786;28;20035;-76
2023/06/09 10:15:44;;;;;;;4.03;2.60;;;26.10;52.90;;;;;;5075508;28;20032;-76
2023/06/09 10:18:12;;;;;;;4.13;2.90;;;26.20;52.90;;;;;;5075449;28;20492;-75
2023/06/09 10:20:41;;;;;;;5.80;3.08;;;26.30;52.90;;;;;;5092691;28;20032;-78
2023/06/09 10:23:07;;;;;;;3.65;2.60;;;26.40;52.80;;;;;;5075327;28;20081;-78
2023/06/09 10:25:33;;;;;;;4.18;2.83;;;26.50;52.80;;;;;;5091929;28;20131;-76
2023/06/09 10:27:59;;;;;;;4.18;2.78;;;26.60;52.90;;;;;;5091825;28;20200;-75
2023/06/09 10:30:25;;;;;;;4.47;2.60;;;26.70;52.90;;;;;;5092100;28;20035;-77
2023/06/09 10:32:58;;;;;;;4.15;2.88;;;26.80;52.90;;;;;;5075431;28;20027;-77
2023/06/09 10:35:27;;;;;;;3.67;2.72;;;26.90;52.90;;;;;;5092226;28;20032;-76
2023/06/09 10:37:56;;;;;;;4.45;2.63;;;27.00;52.80;;;;;;5075153;28;20020;-76
2023/06/09 10:40:46;;;;;;;3.35;2.65;;;27.10;52.80;;;;;;5075298;28;20052;-77
2023/06/09 10:43:44;;;;;;;2.63;2.38;;;27.20;52.90;;;;;;5092016;28;20028;-78
2023/06/09 10:46:12;;;;;;;3.50;2.45;;;27.30;52.90;;;;;;5078208;28;20036;-76
2023/06/09 10:48:49;;;;;;;4.20;2.65;;;27.40;52.80;;;;;;5094510;28;20036;-77
2023/06/09 10:51:27;;;;;;;3.72;2.65;;;27.50;52.90;;;;;;5093027;28;20134;-77
2023/06/09 10:54:15;;;;;;;4.25;3.10;;;27.60;52.90;;;;;;5092292;28;20039;-76
2023/06/09 10:56:43;;;;;;;3.17;2.42;;;27.70;52.80;;;;;;5075342;28;20469;-76
2023/06/09 10:59:24;;;;;;;5.38;2.80;;;27.70;53.30;;;;;;5075164;28;20036;-75
2023/06/09 11:02:00;;;;;;;3.25;2.58;;;27.80;52.70;;;;;;5074742;28;20039;-76
2023/06/09 11:04:37;;;;;;;4.25;2.53;;;27.90;52.70;;;;;;5093832;28;20029;-76
2023/06/09 11:07:21;;;;;;;3.20;2.55;;;28.00;52.80;;;;;;5092213;28;20035;-75
2023/06/09 11:09:46;;;;;;;3.60;2.60;;;28.10;52.80;;;;;;5078547;28;20036;-75
2023/06/09 11:12:27;;;;;;;3.45;2.60;;;28.10;52.70;;;;;;5097234;28;20020;-77
2023/06/09 11:14:56;;;;;;;3.92;2.72;;;28.10;52.80;;;;;;5078619;28;20437;-76
2023/06/09 11:17:34;;;;;;;3.42;2.65;;;28.20;52.80;;;;;;5096545;28;20028;-77
2023/06/09 11:20:06;;;;;;;3.42;2.55;;;28.20;52.70;;;;;;5079121;28;20020;-77
2023/06/09 11:22:32;;;;;;;3.47;2.60;;;28.30;52.70;;;;;;5078484;28;20439;-76
2023/06/09 11:24:58;;;;;;;3.60;2.70;;;28.30;52.70;;;;;;5078154;28;20032;-76
2023/06/09 11:27:24;;;;;;;3.92;2.90;;;28.40;52.80;;;;;;5095313;28;20077;-77
2023/06/09 11:30:19;;;;;;;4.57;2.80;;;28.40;52.80;;;;;;5095360;28;20462;-76
2023/06/09 11:32:49;;;;;;;3.97;2.50;;;28.50;53.00;;;;;;5096707;28;20530;-76
2023/06/09 11:38:22;;;;;;;3.35;2.35;;;28.50;53.00;;;;;;5085811;28;20039;-76
2023/06/09 11:40:52;;;;;;;3.53;2.58;;;28.60;53.00;;;;;;5094885;28;20056;-76
2023/06/09 11:43:21;;;;;;;3.55;2.67;;;28.60;53.10;;;;;;5062423;28;20028;-76
2023/06/09 11:45:47;;;;;;;2.33;2.13;;;28.60;53.00;;;;;;5096129;28;20529;-75
2023/06/09 11:48:13;;;;;;;3.65;2.58;;;28.60;53.10;;;;;;5078973;28;20024;-77
2023/06/09 11:50:44;;;;;;;2.92;2.55;;;28.70;53.20;;;;;;5045333;28;20093;-77
2023/06/09 11:53:15;;;;;;;3.13;2.70;;;28.70;53.20;;;;;;5095418;28;20058;-77
2023/06/09 11:55:41;;;;;;;3.95;2.88;;;28.80;53.40;;;;;;5095001;28;20090;-76
2023/06/09 11:58:12;;;;;;;3.42;2.83;;;28.80;53.30;;;;;;5094655;28;20024;-78
2023/06/09 12:00:41;;;;;;;4.40;2.80;;;28.80;53.20;;;;;;5095604;28;20027;-77
2023/06/09 12:03:07;;;;;;;3.10;2.60;;;28.90;53.20;;;;;;5094729;28;20032;-77
2023/06/09 12:05:33;;;;;;;3.13;2.60;;;28.80;53.00;;;;;;5094778;28;20556;-78
2023/06/09 12:08:02;;;;;;;4.03;2.80;;;28.90;53.00;;;;;;5077740;28;20060;-76
2023/06/09 12:10:30;;;;;;;3.05;2.53;;;28.90;53.10;;;;;;5094610;28;20028;-77
2023/06/09 12:12:57;;;;;;;2.85;2.40;;;29.00;53.10;;;;;;5077994;28;20036;-76
2023/06/09 12:15:27;;;;;;;2.95;2.40;;;28.90;52.90;;;;;;5095514;28;20032;-77
2023/06/09 12:17:57;;;;;;;3.00;2.42;;;29.00;52.90;;;;;;5094327;28;20059;-76
2023/06/09 12:20:34;;;;;;;3.42;2.78;;;29.00;52.80;;;;;;5094532;28;20461;-77
2023/06/09 12:23:13;;;;;;;2.88;2.58;;;29.00;52.80;;;;;;5077358;28;20038;-77
2023/06/09 12:25:43;;;;;;;3.45;2.80;;;29.10;52.70;;;;;;5078242;28;20123;-77
2023/06/09 12:28:26;;;;;;;2.70;2.35;;;29.10;52.60;;;;;;5094196;28;20012;-78
2023/06/09 12:31:11;;;;;;;2.67;2.22;;;29.10;52.50;;;;;;5077753;28;20063;-77
2023/06/09 12:33:37;;;;;;;3.38;2.60;;;29.10;52.40;;;;;;5094047;28;20032;-78
2023/06/09 12:36:05;;;;;;;3.97;2.67;;;29.10;52.20;;;;;;5077621;28;20081;-78
2023/06/09 12:38:39;;;;;;;4.85;2.58;;;29.20;52.20;;;;;;5077272;28;20028;-77
2023/06/09 12:41:07;;;;;;;3.03;2.47;;;29.20;52.10;;;;;;5093847;28;20036;-78
2023/06/09 12:44:02;;;;;;;3.30;2.50;;;29.20;51.90;;;;;;5094314;28;20032;-78
2023/06/09 12:46:28;;;;;;;3.00;2.35;;;29.20;51.90;;;;;;5090428;28;20059;-77
2023/06/09 12:49:04;;;;;;;3.00;2.42;;;29.20;51.80;;;;;;5077168;28;20059;-76
2023/06/09 12:51:31;;;;;;;3.67;2.80;;;29.20;51.70;;;;;;5093888;28;20035;-79
2023/06/09 12:53:57;;;;;;;4.18;2.65;;;29.30;51.70;;;;;;5076895;28;20055;-77
2023/06/09 12:56:25;;;;;;;2.70;2.30;;;29.30;51.50;;;;;;5077024;28;20032;-77
2023/06/09 12:58:51;;;;;;;4.30;2.47;;;29.30;51.50;;;;;;5093525;28;20035;-78